Time;durP1;ratioP1;P1;durP2;ratioP2;P2;SDS_P1;SDS_P2;PMS_P1;PMS_P2;Temp;Humidity;BMP_temperature;BMP_pressure;BME280_temperature;BME280_humidity;BME280_pressure;Samples;Min_cycle;Max_cycle;Signal;HPM_P1;HPM_P2
2022/06/02 00:01:53;;;;;;;23.48;4.38;;;25.00;80.40;;;;;;5073612;28;20376;-71
2022/06/02 00:04:34;;;;;;;26.35;4.03;;;24.90;80.50;;;;;;5074165;28;20021;-71
2022/06/02 00:07:12;;;;;;;34.42;4.22;;;24.90;80.20;;;;;;5073978;28;20031;-71
2022/06/02 00:10:12;;;;;;;25.08;3.90;;;24.80;80.40;;;;;;5074011;28;20021;-71
2022/06/02 00:13:10;;;;;;;24.58;4.30;;;24.80;81.00;;;;;;5074043;28;20020;-71
2022/06/02 00:15:45;;;;;;;20.85;3.72;;;24.80;81.30;;;;;;5073823;28;20055;-72
2022/06/02 00:18:29;;;;;;;20.90;3.85;;;24.80;81.50;;;;;;5073914;28;20021;-71
2022/06/02 00:21:13;;;;;;;23.08;4.28;;;24.80;81.70;;;;;;5073352;28;20033;-71
2022/06/02 00:23:59;;;;;;;20.60;4.00;;;24.70;81.90;;;;;;5073324;28;20381;-71
2022/06/02 00:26:58;;;;;;;36.03;4.20;;;24.70;82.60;;;;;;5073037;28;20024;-71
2022/06/02 00:29:59;;;;;;;23.75;4.03;;;24.60;82.80;;;;;;5073718;28;20029;-72
2022/06/02 00:32:32;;;;;;;17.73;3.95;;;24.60;83.10;;;;;;5073477;28;20097;-71
2022/06/02 00:35:18;;;;;;;14.55;2.97;;;24.60;83.40;;;;;;5055812;28;20029;-72
2022/06/02 00:38:18;;;;;;;25.27;3.95;;;24.60;83.40;;;;;;5055453;28;20387;-72
2022/06/02 00:40:45;;;;;;;22.40;4.38;;;24.70;83.50;;;;;;5054889;28;20056;-71
2022/06/02 00:43:25;;;;;;;30.52;4.10;;;24.70;83.20;;;;;;5055059;28;20075;-72
2022/06/02 00:46:10;;;;;;;24.13;4.18;;;24.80;82.70;;;;;;5073540;28;20021;-72
2022/06/02 00:49:04;;;;;;;18.57;3.50;;;24.90;81.90;;;;;;5073462;28;20464;-73
2022/06/02 00:51:41;;;;;;;26.80;3.83;;;25.00;81.30;;;;;;5073336;28;20262;-71
2022/06/02 00:57:37;;;;;;;25.05;4.22;;;25.00;82.30;;;;;;5072705;28;20079;-73
2022/06/02 01:00:15;;;;;;;25.05;4.07;;;24.90;82.70;;;;;;5072820;28;20389;-72
2022/06/02 01:02:51;;;;;;;25.02;4.20;;;24.90;83.20;;;;;;5051297;28;20076;-72
2022/06/02 01:05:35;;;;;;;16.23;4.13;;;24.80;83.50;;;;;;5052779;28;20132;-72
2022/06/02 01:08:28;;;;;;;23.02;3.53;;;24.80;83.40;;;;;;5053257;28;20066;-72
2022/06/02 01:11:14;;;;;;;28.73;4.05;;;24.80;83.40;;;;;;5041398;28;20036;-72
2022/06/02 01:13:51;;;;;;;25.63;4.22;;;24.80;83.50;;;;;;5053191;28;20029;-72
2022/06/02 01:16:21;;;;;;;;;;;24.70;83.60;;;;;;5053408;28;20047;-72
2022/06/02 01:19:12;;;;;;;22.63;4.13;;;24.70;83.70;;;;;;5051121;28;19911;-72
2022/06/02 01:21:38;;;;;;;24.08;4.10;;;24.70;83.90;;;;;;5053062;28;20031;-72
2022/06/02 01:24:30;;;;;;;20.10;3.40;;;24.60;84.00;;;;;;5052887;28;20028;-72
2022/06/02 01:27:06;;;;;;;23.55;4.03;;;24.60;84.30;;;;;;5052334;28;20151;-72
2022/06/02 01:29:37;;;;;;;23.15;4.72;;;24.60;84.50;;;;;;5052362;28;20513;-72
2022/06/02 01:32:09;;;;;;;19.38;3.38;;;24.60;85.40;;;;;;5052305;28;20492;-72
2022/06/02 01:34:48;;;;;;;20.80;4.20;;;24.60;84.60;;;;;;5052259;28;20021;-72
2022/06/02 01:37:30;;;;;;;32.03;4.68;;;24.60;84.50;;;;;;5052672;28;20064;-72
2022/06/02 01:40:14;;;;;;;29.58;4.65;;;24.60;84.40;;;;;;5052526;28;20412;-72
2022/06/02 01:43:20;;;;;;;26.15;4.68;;;24.60;84.30;;;;;;5052762;28;20465;-72
2022/06/02 01:46:20;;;;;;;27.42;4.80;;;24.60;84.30;;;;;;5051515;28;20041;-72
2022/06/02 01:49:11;;;;;;;20.23;3.75;;;24.60;84.10;;;;;;5052051;28;20025;-72
2022/06/02 01:51:39;;;;;;;16.42;3.95;;;24.60;84.30;;;;;;5052568;28;20017;-72
2022/06/02 01:54:36;;;;;;;28.58;4.40;;;24.60;84.50;;;;;;5052519;28;20317;-72
2022/06/02 01:57:18;;;;;;;28.13;4.45;;;24.50;84.90;;;;;;5052415;28;20534;-72
2022/06/02 02:00:06;;;;;;;24.35;4.70;;;24.50;84.70;;;;;;5052576;28;20021;-72
2022/06/02 02:02:51;;;;;;;26.42;4.60;;;24.50;84.70;;;;;;5050589;28;20079;-71
2022/06/02 02:05:27;;;;;;;27.00;4.75;;;24.50;84.70;;;;;;5052219;28;20028;-72
2022/06/02 02:08:32;;;;;;;22.50;4.53;;;24.60;84.70;;;;;;5052418;28;20509;-72
2022/06/02 02:11:12;;;;;;;21.20;4.45;;;24.70;84.50;;;;;;5054096;28;20029;-72
2022/06/02 02:13:43;;;;;;;21.70;4.63;;;24.60;84.50;;;;;;5056717;28;20029;-72
2022/06/02 02:16:34;;;;;;;24.42;4.78;;;24.60;84.50;;;;;;5056614;28;20041;-72
2022/06/02 02:19:34;;;;;;;22.00;4.82;;;24.50;85.00;;;;;;5055947;28;20025;-72
2022/06/02 02:22:18;;;;;;;18.10;4.15;;;24.50;85.20;;;;;;5056274;28;20385;-72
2022/06/02 02:25:21;;;;;;;30.00;4.88;;;24.40;85.00;;;;;;5054629;28;20021;-72
2022/06/02 02:28:21;;;;;;;24.17;4.75;;;24.40;85.30;;;;;;5055952;28;20047;-72
2022/06/02 02:31:19;;;;;;;25.67;5.10;;;24.40;85.40;;;;;;5055923;28;20078;-72
2022/06/02 02:34:05;;;;;;;23.05;4.28;;;24.60;85.00;;;;;;5056414;28;20096;-72
2022/06/02 02:36:59;;;;;;;33.47;4.22;;;24.70;84.70;;;;;;5055983;28;20068;-72
2022/06/02 02:39:31;;;;;;;22.58;4.13;;;24.80;84.60;;;;;;5055777;28;20095;-72
2022/06/02 02:42:15;;;;;;;32.38;4.95;;;24.80;84.30;;;;;;5056136;28;20047;-72
2022/06/02 02:45:08;;;;;;;20.05;4.45;;;24.80;84.30;;;;;;5056189;28;20060;-72
2022/06/02 02:47:51;;;;;;;20.50;4.32;;;24.80;84.50;;;;;;5054167;28;20029;-72
2022/06/02 02:50:37;;;;;;;26.23;4.22;;;24.80;84.60;;;;;;5054249;28;20025;-73
2022/06/02 02:53:14;;;;;;;18.42;4.13;;;24.80;84.50;;;;;;5055980;28;20110;-72
2022/06/02 02:56:02;;;;;;;20.05;3.85;;;24.80;84.60;;;;;;5055905;28;20032;-73
2022/06/02 02:58:28;;;;;;;14.50;4.28;;;24.70;84.50;;;;;;5053975;28;20112;-72
2022/06/02 03:01:12;;;;;;;24.45;4.30;;;24.70;84.60;;;;;;5053944;28;20116;-72
2022/06/02 03:03:45;;;;;;;29.27;4.03;;;24.60;85.70;;;;;;5055485;28;20040;-72
2022/06/02 03:06:20;;;;;;;21.33;3.88;;;24.70;84.50;;;;;;5055745;28;20109;-73
2022/06/02 03:09:14;;;;;;;28.77;4.43;;;24.70;83.90;;;;;;5053848;28;20079;-72
2022/06/02 03:12:03;;;;;;;19.25;4.22;;;24.70;83.70;;;;;;5055659;28;20441;-73
2022/06/02 03:15:06;;;;;;;22.55;4.68;;;24.70;83.40;;;;;;5055070;28;20032;-73
2022/06/02 03:18:00;;;;;;;27.58;4.57;;;24.70;83.40;;;;;;5054978;28;20049;-71
2022/06/02 03:20:52;;;;;;;28.63;4.40;;;24.70;83.00;;;;;;5055005;28;20078;-72
2022/06/02 03:23:42;;;;;;;17.20;3.47;;;24.70;82.20;;;;;;5055563;28;20021;-72
2022/06/02 03:26:48;;;;;;;17.08;4.13;;;24.70;82.10;;;;;;5055306;28;20036;-72
2022/06/02 03:29:28;;;;;;;19.45;3.78;;;24.70;82.90;;;;;;5033330;28;20382;-72
2022/06/02 03:32:04;;;;;;;18.55;3.58;;;24.70;82.80;;;;;;5016217;28;20065;-72
2022/06/02 03:34:40;;;;;;;;;;;24.60;82.40;;;;;;5033805;28;20025;-72
2022/06/02 03:37:25;;;;;;;26.05;3.45;;;24.60;82.10;;;;;;5032592;28;19967;-72
2022/06/02 03:40:20;;;;;;;21.90;3.92;;;24.60;81.60;;;;;;5033149;28;20072;-72
2022/06/02 03:42:58;;;;;;;21.13;4.60;;;24.60;82.20;;;;;;5033162;28;20172;-72
2022/06/02 03:45:42;;;;;;;21.33;4.43;;;24.60;82.30;;;;;;5033014;28;20482;-73
2022/06/02 03:48:43;;;;;;;27.90;4.20;;;24.50;81.50;;;;;;5032620;28;20540;-72
2022/06/02 03:51:28;;;;;;;27.02;3.85;;;24.50;80.80;;;;;;5032393;28;20025;-72
2022/06/02 03:54:11;;;;;;;16.60;3.63;;;24.60;80.00;;;;;;5032898;28;20035;-72
2022/06/02 03:57:14;;;;;;;20.80;4.28;;;24.60;76.90;;;;;;5032280;28;20371;-72
2022/06/02 04:00:07;;;;;;;24.90;4.28;;;24.70;77.80;;;;;;5032703;28;20049;-72
2022/06/02 04:02:56;;;;;;;28.80;4.60;;;24.70;79.80;;;;;;5032274;28;20210;-73
2022/06/02 04:05:47;;;;;;;29.90;4.43;;;24.70;81.30;;;;;;5049825;28;20392;-72
2022/06/02 04:08:35;;;;;;;31.35;4.43;;;24.60;81.60;;;;;;5054599;28;20055;-72
2022/06/02 04:11:29;;;;;;;27.15;4.82;;;24.60;80.60;;;;;;5054118;28;20029;-72
2022/06/02 04:14:36;;;;;;;26.55;4.65;;;24.70;80.10;;;;;;5054302;28;20571;-72
2022/06/02 04:17:26;;;;;;;26.25;4.25;;;24.80;80.60;;;;;;5054403;28;20032;-72
2022/06/02 04:23:11;;;;;;;21.83;4.28;;;24.80;81.00;;;;;;5053931;28;20063;-72
2022/06/02 04:25:55;;;;;;;19.80;4.18;;;24.90;80.70;;;;;;5053795;28;20100;-72
2022/06/02 04:28:30;;;;;;;25.40;4.10;;;25.00;80.80;;;;;;5052872;28;20021;-72
2022/06/02 04:31:30;;;;;;;21.90;4.20;;;25.00;80.40;;;;;;5054235;28;20035;-72
2022/06/02 04:34:26;;;;;;;18.98;3.78;;;25.10;80.40;;;;;;5053105;28;20024;-72
2022/06/02 04:37:24;;;;;;;27.73;5.10;;;25.00;81.60;;;;;;5054211;28;20489;-72
2022/06/02 04:40:03;;;;;;;23.60;3.95;;;24.90;82.60;;;;;;5048781;28;20037;-73
2022/06/02 04:42:34;;;;;;;22.95;4.85;;;24.80;83.00;;;;;;5053521;28;20025;-72
2022/06/02 04:45:19;;;;;;;24.90;4.28;;;24.80;83.40;;;;;;5053023;28;20377;-72
2022/06/02 04:48:25;;;;;;;27.08;4.40;;;24.80;83.50;;;;;;5053735;28;20094;-72
2022/06/02 04:51:12;;;;;;;27.80;4.40;;;24.80;83.50;;;;;;5052908;28;20040;-72
2022/06/02 04:53:41;;;;;;;20.55;4.72;;;24.80;83.60;;;;;;5053595;28;20037;-72
2022/06/02 04:56:30;;;;;;;24.73;5.07;;;24.80;83.70;;;;;;5051591;28;20398;-72
2022/06/02 04:59:03;;;;;;;36.80;4.50;;;25.00;83.60;;;;;;5053527;28;20450;-72
2022/06/02 05:02:14;;;;;;;20.23;4.07;;;25.40;82.90;;;;;;5056001;28;20040;-74
2022/06/02 05:05:03;;;;;;;26.20;4.35;;;26.50;80.30;;;;;;5053622;28;20052;-72
2022/06/02 05:07:58;;;;;;;31.20;4.70;;;27.30;78.10;;;;;;5073180;28;20469;-73
2022/06/02 05:10:41;;;;;;;21.23;4.35;;;28.00;76.00;;;;;;5072656;28;20020;-73
2022/06/02 05:13:28;;;;;;;30.08;4.30;;;28.70;74.40;;;;;;5072440;28;20126;-73
2022/06/02 05:16:13;;;;;;;22.27;4.57;;;29.90;72.40;;;;;;5072273;28;20028;-72
2022/06/02 05:19:20;;;;;;;26.17;4.28;;;30.40;70.70;;;;;;5072157;28;20127;-72
2022/06/02 05:21:49;;;;;;;22.42;4.28;;;30.80;70.10;;;;;;5070635;28;20477;-72
2022/06/02 05:24:31;;;;;;;21.00;3.83;;;31.60;69.60;;;;;;5054057;28;20032;-73
2022/06/02 05:27:00;;;;;;;29.10;5.00;;;32.10;67.60;;;;;;5072200;28;20043;-71
2022/06/02 05:29:57;;;;;;;28.08;4.68;;;31.70;67.30;;;;;;5071685;28;20082;-71
2022/06/02 05:32:44;;;;;;;31.60;4.28;;;32.00;66.90;;;;;;5072107;28;20035;-69
2022/06/02 05:35:45;;;;;;;28.65;4.78;;;32.40;66.10;;;;;;5071809;28;20021;-71
2022/06/02 05:38:29;;;;;;;29.92;5.15;;;33.20;65.10;;;;;;5071907;28;20029;-71
2022/06/02 05:41:26;;;;;;;29.25;5.30;;;33.80;63.90;;;;;;5053394;28;20043;-71
2022/06/02 05:44:11;;;;;;;28.25;4.28;;;34.60;62.60;;;;;;5071679;28;20030;-71
2022/06/02 05:46:54;;;;;;;26.42;8.10;;;35.20;61.10;;;;;;5072014;28;20048;-72
2022/06/02 05:49:32;;;;;;;27.20;6.25;;;35.30;59.70;;;;;;5071742;28;20052;-72
2022/06/02 05:52:29;;;;;;;27.65;7.30;;;35.60;59.90;;;;;;5072158;28;20434;-72
2022/06/02 05:55:13;;;;;;;34.42;7.82;;;36.00;58.20;;;;;;5071486;28;20056;-72
2022/06/02 05:57:53;;;;;;;26.92;7.70;;;36.10;57.90;;;;;;5071264;28;20126;-72
2022/06/02 06:00:49;;;;;;;26.98;4.78;;;36.50;57.50;;;;;;5071621;28;20020;-72
2022/06/02 06:03:52;;;;;;;21.05;4.13;;;37.20;57.00;;;;;;5071239;28;20059;-73
2022/06/02 06:06:42;;;;;;;21.63;4.00;;;36.90;57.00;;;;;;5071357;28;20028;-73
2022/06/02 06:09:31;;;;;;;23.65;6.60;;;36.40;58.00;;;;;;5071554;28;20020;-73
2022/06/02 06:12:18;;;;;;;23.90;6.30;;;37.20;57.40;;;;;;5072036;28;20044;-72
2022/06/02 06:14:54;;;;;;;39.00;13.27;;;37.40;56.70;;;;;;5071942;28;20160;-73
2022/06/02 06:17:43;;;;;;;43.97;13.75;;;38.10;56.30;;;;;;5072543;28;20037;-72
2022/06/02 06:20:34;;;;;;;25.52;6.82;;;39.20;55.20;;;;;;5072619;28;20417;-71
2022/06/02 06:23:06;;;;;;;33.42;12.02;;;39.90;53.00;;;;;;5072309;28;20099;-73
2022/06/02 06:25:46;;;;;;;37.25;16.95;;;39.50;53.90;;;;;;5072331;28;20457;-73
2022/06/02 06:28:23;;;;;;;30.88;8.82;;;39.70;53.60;;;;;;5072203;28;20052;-73
2022/06/02 06:31:41;;;;;;;26.42;8.27;;;39.90;54.10;;;;;;5071977;28;20029;-73
2022/06/02 06:34:26;;;;;;;31.83;10.60;;;41.40;53.00;;;;;;4981153;28;20063;-73
2022/06/02 06:37:32;;;;;;;30.38;10.07;;;41.30;51.80;;;;;;5030392;28;20039;-73
2022/06/02 06:40:13;;;;;;;27.27;6.63;;;41.00;52.50;;;;;;5029896;28;20088;-72
2022/06/02 06:43:18;;;;;;;27.23;6.50;;;41.70;51.50;;;;;;5030357;28;20579;-72
2022/06/02 06:46:08;;;;;;;27.92;4.60;;;42.60;50.50;;;;;;5030609;28;20089;-72
2022/06/02 06:49:02;;;;;;;17.73;3.75;;;41.00;50.60;;;;;;5030282;28;20045;-72
2022/06/02 06:51:40;;;;;;;24.77;3.88;;;40.20;50.10;;;;;;5030110;28;20033;-72
2022/06/02 06:54:20;;;;;;;23.67;3.95;;;39.00;51.10;;;;;;5030016;28;20120;-72
2022/06/02 06:56:57;;;;;;;27.58;4.30;;;37.20;52.60;;;;;;5032392;28;20029;-73
2022/06/02 06:59:29;;;;;;;22.23;4.47;;;37.40;53.20;;;;;;5033107;28;20029;-72
2022/06/02 07:02:18;;;;;;;26.50;4.97;;;37.20;54.10;;;;;;5031582;28;20156;-72
2022/06/02 07:04:46;;;;;;;23.73;3.90;;;37.90;53.80;;;;;;5033190;28;20055;-72
2022/06/02 07:07:35;;;;;;;26.85;4.28;;;38.00;52.30;;;;;;5033671;28;20037;-73
2022/06/02 07:10:41;;;;;;;25.95;4.50;;;38.00;52.40;;;;;;5038019;28;20041;-72
2022/06/02 07:13:12;;;;;;;24.17;4.38;;;37.40;52.50;;;;;;4996474;28;20029;-72
2022/06/02 07:15:45;;;;;;;27.65;4.78;;;37.50;53.10;;;;;;4996244;28;20113;-72
2022/06/02 07:18:26;;;;;;;23.85;4.32;;;37.90;53.40;;;;;;5013104;28;20589;-72
2022/06/02 07:21:18;;;;;;;29.92;5.32;;;38.40;53.20;;;;;;5013517;28;20061;-73
2022/06/02 07:24:11;;;;;;;21.33;4.40;;;38.30;52.60;;;;;;5013640;28;20049;-72
2022/06/02 07:27:03;;;;;;;25.75;4.47;;;38.60;53.20;;;;;;5013239;28;20038;-74
2022/06/02 07:29:49;;;;;;;29.40;4.22;;;38.70;52.90;;;;;;5004542;28;20068;-73
2022/06/02 07:32:47;;;;;;;27.67;4.63;;;38.60;52.80;;;;;;5013249;28;20099;-72
2022/06/02 07:35:28;;;;;;;26.08;4.75;;;38.60;53.50;;;;;;4970494;28;20095;-73
2022/06/02 07:38:17;;;;;;;36.00;4.78;;;38.30;54.20;;;;;;5012703;28;20042;-73
2022/06/02 07:41:04;;;;;;;27.30;4.50;;;38.50;54.90;;;;;;5013256;28;20419;-72
2022/06/02 07:43:53;;;;;;;26.95;5.20;;;38.50;55.40;;;;;;5013172;28;20041;-72
2022/06/02 07:46:35;;;;;;;21.67;4.45;;;38.60;55.10;;;;;;5012923;28;20029;-73
2022/06/02 07:49:33;;;;;;;19.67;4.63;;;38.60;55.20;;;;;;5039172;28;20140;-73
2022/06/02 07:52:19;;;;;;;30.73;5.15;;;38.80;54.80;;;;;;5037052;28;20037;-73
2022/06/02 07:55:01;;;;;;;34.83;5.43;;;38.60;55.70;;;;;;5054275;28;20475;-72
2022/06/02 07:58:08;;;;;;;21.75;4.45;;;38.60;54.80;;;;;;5054148;28;20409;-73
2022/06/02 08:01:00;;;;;;;24.88;4.15;;;38.60;53.60;;;;;;5054018;28;20021;-72
2022/06/02 08:03:54;;;;;;;19.92;4.22;;;38.30;54.00;;;;;;5061161;28;20052;-73
2022/06/02 08:06:41;;;;;;;25.17;4.43;;;38.30;53.90;;;;;;5073979;28;20116;-73
2022/06/02 08:09:27;;;;;;;35.88;4.53;;;38.40;53.20;;;;;;5074197;28;20099;-72
2022/06/02 08:15:08;;;;;;;21.00;3.75;;;37.80;54.10;;;;;;5074036;28;20491;-74
2022/06/02 08:18:07;;;;;;;24.25;3.50;;;37.80;54.80;;;;;;5074286;28;20439;-72
2022/06/02 08:20:58;;;;;;;34.88;4.45;;;37.80;55.00;;;;;;5032058;28;20100;-74
2022/06/02 08:23:25;;;;;;;18.40;4.22;;;38.00;54.70;;;;;;5032493;28;20429;-73
2022/06/02 08:25:57;;;;;;;21.02;4.82;;;37.90;53.60;;;;;;5031862;28;20548;-73
2022/06/02 08:28:47;;;;;;;28.02;6.53;;;37.60;52.40;;;;;;5032207;28;20033;-73
2022/06/02 08:31:50;;;;;;;25.27;6.63;;;37.30;52.90;;;;;;5031868;28;20526;-73
2022/06/02 08:34:38;;;;;;;38.22;17.58;;;37.20;53.10;;;;;;5031654;28;20025;-73
2022/06/02 08:37:20;;;;;;;35.75;14.80;;;36.40;54.50;;;;;;5032071;28;20053;-75
2022/06/02 08:40:14;;;;;;;37.72;17.25;;;36.50;55.00;;;;;;5032080;28;20474;-73
2022/06/02 08:42:53;;;;;;;37.43;14.00;;;36.60;54.60;;;;;;5031812;28;20028;-73
2022/06/02 08:45:34;;;;;;;40.10;16.88;;;36.10;53.70;;;;;;5031559;28;20383;-73
2022/06/02 08:48:03;;;;;;;35.85;14.27;;;36.00;54.00;;;;;;5014828;28;20025;-73
2022/06/02 08:50:53;;;;;;;46.20;20.48;;;36.20;55.60;;;;;;5031359;28;20045;-73
2022/06/02 08:53:56;;;;;;;27.52;7.82;;;35.60;56.80;;;;;;5031501;28;20364;-73
2022/06/02 08:57:03;;;;;;;24.33;7.82;;;35.40;55.50;;;;;;5041428;28;20135;-72
2022/06/02 08:59:51;;;;;;;36.47;6.50;;;35.20;58.00;;;;;;5073135;28;20063;-72
2022/06/02 09:02:39;;;;;;;32.50;11.80;;;34.60;57.90;;;;;;5072807;28;20036;-73
2022/06/02 09:05:27;;;;;;;31.63;7.60;;;34.90;59.00;;;;;;5073120;28;20070;-73
2022/06/02 09:08:27;;;;;;;25.70;6.80;;;34.70;58.60;;;;;;5073176;28;20021;-73
2022/06/02 09:11:15;;;;;;;25.23;6.13;;;34.60;59.10;;;;;;5072604;28;20043;-72
2022/06/02 09:14:19;;;;;;;24.52;4.80;;;34.60;58.90;;;;;;5072375;28;20040;-74
2022/06/02 09:17:11;;;;;;;23.95;5.10;;;34.80;57.50;;;;;;5072440;28;20494;-73
2022/06/02 09:20:09;;;;;;;22.50;4.82;;;34.40;58.30;;;;;;5072508;28;20421;-73
2022/06/02 09:22:55;;;;;;;17.15;3.85;;;34.40;58.10;;;;;;5068445;28;20090;-72
2022/06/02 09:25:36;;;;;;;24.42;4.35;;;33.80;58.00;;;;;;5072881;28;20400;-73
2022/06/02 09:28:26;;;;;;;21.88;4.10;;;34.00;58.10;;;;;;5072600;28;20021;-73
2022/06/02 09:31:10;;;;;;;22.52;3.97;;;33.90;59.00;;;;;;5072620;28;20028;-74
2022/06/02 09:34:01;;;;;;;20.45;3.58;;;34.20;59.50;;;;;;5054336;28;20025;-73
2022/06/02 09:36:55;;;;;;;21.38;4.00;;;34.10;58.90;;;;;;5072723;28;20031;-73
2022/06/02 09:39:39;;;;;;;17.83;3.38;;;33.60;59.00;;;;;;5053765;28;20032;-74
2022/06/02 09:42:11;;;;;;;19.45;3.50;;;33.30;58.60;;;;;;5072640;28;20548;-72
2022/06/02 09:45:14;;;;;;;18.23;3.38;;;33.00;58.50;;;;;;5053859;28;20032;-74
2022/06/02 09:48:15;;;;;;;15.05;3.20;;;32.90;58.80;;;;;;5072380;28;20469;-73
2022/06/02 09:50:56;;;;;;;17.20;3.70;;;33.10;58.80;;;;;;5053925;28;20033;-73
2022/06/02 09:53:58;;;;;;;17.17;3.20;;;33.20;57.10;;;;;;5072477;28;20098;-72
2022/06/02 09:56:57;;;;;;;21.23;3.30;;;32.90;57.90;;;;;;5053535;28;20036;-73
2022/06/02 09:59:30;;;;;;;18.92;3.38;;;32.80;58.10;;;;;;5049272;28;20052;-74
2022/06/02 10:02:05;;;;;;;22.00;3.42;;;32.80;58.20;;;;;;5072268;28;20016;-73
2022/06/02 10:05:08;;;;;;;15.35;3.28;;;33.10;57.10;;;;;;5072590;28;20085;-73
2022/06/02 10:07:52;;;;;;;14.75;3.35;;;33.10;57.10;;;;;;5072538;28;20047;-74
2022/06/02 10:10:48;;;;;;;18.75;3.67;;;33.00;56.50;;;;;;5072366;28;20040;-72
2022/06/02 10:13:43;;;;;;;19.02;4.05;;;32.80;57.60;;;;;;5072253;28;20040;-73
2022/06/02 10:16:17;;;;;;;17.60;3.22;;;32.80;58.70;;;;;;5029902;28;20080;-74
2022/06/02 10:19:13;;;;;;;18.90;3.53;;;32.80;58.50;;;;;;5030369;28;20108;-74
2022/06/02 10:22:09;;;;;;;15.50;3.65;;;32.90;58.10;;;;;;5013522;28;20060;-74
2022/06/02 10:25:05;;;;;;;13.77;3.08;;;32.80;58.20;;;;;;5013244;28;20033;-72
2022/06/02 10:28:09;;;;;;;17.88;3.10;;;33.00;56.70;;;;;;5030314;28;20038;-71
2022/06/02 10:30:56;;;;;;;16.52;3.28;;;32.90;56.60;;;;;;5014029;28;20113;-72
2022/06/02 10:33:35;;;;;;;14.57;3.05;;;33.00;56.80;;;;;;5034048;28;20450;-72
2022/06/02 10:36:19;;;;;;;12.57;3.05;;;33.10;55.70;;;;;;5033675;28;20029;-73
2022/06/02 10:39:18;;;;;;;16.33;3.35;;;33.00;55.60;;;;;;5033828;28;20041;-72
2022/06/02 10:41:57;;;;;;;18.00;3.95;;;32.90;55.40;;;;;;5033345;28;20025;-73
2022/06/02 10:44:44;;;;;;;16.17;4.38;;;32.80;56.40;;;;;;5033197;28;20034;-72
2022/06/02 10:47:40;;;;;;;16.35;5.13;;;32.80;56.70;;;;;;5033729;28;20470;-72
2022/06/02 10:50:33;;;;;;;20.88;4.43;;;32.70;56.40;;;;;;5033559;28;20033;-74
2022/06/02 10:53:42;;;;;;;15.48;3.95;;;32.90;56.50;;;;;;5054508;28;20064;-73
2022/06/02 10:56:27;;;;;;;16.05;4.22;;;32.90;55.70;;;;;;5074909;28;20048;-73
2022/06/02 10:59:31;;;;;;;12.52;3.40;;;32.90;55.90;;;;;;5075041;28;20035;-73
2022/06/02 11:02:15;;;;;;;23.60;2.97;;;33.00;56.00;;;;;;5074673;28;20500;-72
2022/06/02 11:05:06;;;;;;;14.32;2.95;;;32.90;55.40;;;;;;5075506;28;20465;-72
2022/06/02 11:08:00;;;;;;;13.68;2.90;;;33.00;54.20;;;;;;5075281;28;20096;-74
2022/06/02 11:10:53;;;;;;;16.55;2.90;;;32.90;54.30;;;;;;5075231;28;20024;-73
2022/06/02 11:13:54;;;;;;;15.63;3.00;;;33.00;54.70;;;;;;5075356;28;20043;-73
2022/06/02 11:16:42;;;;;;;13.55;2.95;;;33.00;55.30;;;;;;5075165;28;20071;-72
2022/06/02 11:19:42;;;;;;;12.13;2.40;;;33.20;54.20;;;;;;5075004;28;20039;-73
2022/06/02 11:22:52;;;;;;;12.60;2.95;;;33.20;54.70;;;;;;5074752;28;20034;-72
2022/06/02 11:25:44;;;;;;;15.40;2.88;;;32.80;55.00;;;;;;5074652;28;20358;-74
2022/06/02 11:28:55;;;;;;;18.25;3.92;;;32.60;55.60;;;;;;5074696;28;20025;-73
2022/06/02 11:31:58;;;;;;;13.93;3.75;;;32.80;55.30;;;;;;5074540;28;20096;-72
2022/06/02 11:35:01;;;;;;;19.13;3.28;;;33.10;54.10;;;;;;5056918;28;20086;-72
2022/06/02 11:37:46;;;;;;;17.45;3.08;;;33.10;54.50;;;;;;5074564;28;20033;-73
2022/06/02 11:40:43;;;;;;;16.60;2.92;;;32.80;54.10;;;;;;5074645;28;20028;-72
2022/06/02 11:43:29;;;;;;;11.90;2.70;;;32.70;54.90;;;;;;5073704;28;20059;-72
2022/06/02 11:46:13;;;;;;;14.65;2.78;;;32.80;55.10;;;;;;5074318;28;20017;-71
2022/06/02 11:48:58;;;;;;;13.75;3.20;;;32.90;54.90;;;;;;5073889;28;20431;-72
2022/06/02 11:51:27;;;;;;;14.52;3.47;;;33.10;55.60;;;;;;5074416;28;20368;-73
2022/06/02 11:54:02;;;;;;;17.00;3.20;;;33.10;55.80;;;;;;5074300;28;20353;-72
2022/06/02 11:56:45;;;;;;;11.82;3.20;;;33.10;56.10;;;;;;5073566;28;20384;-73
2022/06/02 11:59:11;;;;;;;11.68;3.17;;;33.30;56.20;;;;;;5074190;28;20027;-72
2022/06/02 12:01:52;;;;;;;;;;;33.30;56.70;;;;;;5074552;28;20052;-72
2022/06/02 12:04:34;;;;;;;16.75;3.50;;;33.40;56.00;;;;;;5073555;28;19935;-72
2022/06/02 12:07:44;;;;;;;19.30;3.00;;;33.50;55.60;;;;;;5074090;28;20121;-72
2022/06/02 12:10:37;;;;;;;12.30;3.03;;;33.40;56.00;;;;;;5073876;28;20032;-73
2022/06/02 12:13:06;;;;;;;10.70;3.15;;;33.50;55.10;;;;;;5073723;28;20028;-73
2022/06/02 12:15:48;;;;;;;11.95;2.70;;;33.50;54.70;;;;;;5073224;28;20025;-73
2022/06/02 12:18:31;;;;;;;10.38;2.67;;;33.60;54.50;;;;;;5073657;28;20086;-73
2022/06/02 12:21:20;;;;;;;11.20;2.80;;;33.60;52.80;;;;;;5073888;28;20028;-74
2022/06/02 12:24:08;;;;;;;12.70;3.03;;;33.70;53.30;;;;;;5073691;28;20145;-74
2022/06/02 12:27:03;;;;;;;11.57;2.65;;;33.40;52.90;;;;;;5073922;28;20028;-73
2022/06/02 12:29:58;;;;;;;8.32;2.55;;;33.20;51.80;;;;;;5073774;28;20082;-74
2022/06/02 12:32:53;;;;;;;10.00;2.55;;;32.80;52.80;;;;;;5073530;28;20052;-73
2022/06/02 12:35:43;;;;;;;12.75;2.80;;;33.10;51.00;;;;;;5073506;28;20091;-74
2022/06/02 12:38:18;;;;;;;12.20;2.75;;;33.10;51.10;;;;;;5073411;28;20521;-73
2022/06/02 12:41:11;;;;;;;19.43;3.03;;;33.30;50.30;;;;;;5072961;28;20100;-74
2022/06/02 12:44:03;;;;;;;11.73;2.72;;;33.30;49.40;;;;;;5073278;28;20415;-74
2022/06/02 12:46:38;;;;;;;13.80;2.30;;;33.20;49.10;;;;;;5073256;28;20028;-73
2022/06/02 12:49:17;;;;;;;10.63;2.33;;;32.90;49.90;;;;;;5073088;28;20028;-73
2022/06/02 12:51:57;;;;;;;14.35;2.90;;;32.80;50.60;;;;;;5073239;28;20028;-73
2022/06/02 12:55:07;;;;;;;13.35;2.65;;;32.60;50.90;;;;;;5072567;28;20033;-73
2022/06/02 12:57:59;;;;;;;12.98;2.30;;;32.40;51.10;;;;;;5072947;28;20468;-73
2022/06/02 13:00:45;;;;;;;11.43;2.45;;;32.30;51.40;;;;;;5073123;28;20032;-73
2022/06/02 13:03:36;;;;;;;11.23;2.47;;;32.60;51.10;;;;;;5054455;28;20077;-73
2022/06/02 13:06:23;;;;;;;8.93;2.30;;;32.70;51.30;;;;;;5064862;28;20041;-74
2022/06/02 13:09:08;;;;;;;11.90;2.33;;;33.00;50.50;;;;;;5072731;28;20020;-72
2022/06/02 13:12:05;;;;;;;15.18;2.67;;;33.00;50.50;;;;;;5054511;28;20033;-72
2022/06/02 13:14:56;;;;;;;16.90;2.97;;;33.30;50.90;;;;;;5053972;28;20091;-72
2022/06/02 13:17:40;;;;;;;15.15;2.92;;;33.40;50.40;;;;;;5072247;28;20499;-72
2022/06/02 13:20:25;;;;;;;13.77;2.90;;;33.40;49.70;;;;;;5072222;28;20052;-72
2022/06/02 13:23:28;;;;;;;12.13;2.65;;;33.60;50.30;;;;;;5071673;28;20031;-72
2022/06/02 13:26:09;;;;;;;19.80;2.65;;;33.60;49.90;;;;;;5071771;28;20036;-73
2022/06/02 13:29:06;;;;;;;18.83;2.50;;;33.70;50.00;;;;;;5053956;28;20051;-73
2022/06/02 13:32:33;;;;;;;14.32;2.58;;;33.70;48.90;;;;;;5071944;28;20029;-73
2022/06/02 13:35:36;;;;;;;25.88;3.28;;;33.50;49.50;;;;;;5029940;28;20037;-71
2022/06/02 13:38:35;;;;;;;11.80;2.63;;;33.40;50.40;;;;;;5029485;28;20115;-73
2022/06/02 13:41:29;;;;;;;10.80;2.15;;;33.40;49.70;;;;;;5029915;28;20037;-73
2022/06/02 13:44:13;;;;;;;7.53;2.08;;;33.60;48.70;;;;;;5030028;28;20045;-72
2022/06/02 13:46:58;;;;;;;9.38;2.53;;;33.60;48.40;;;;;;5029659;28;20030;-72
2022/06/02 13:50:05;;;;;;;10.07;2.28;;;33.70;48.10;;;;;;5029613;28;20045;-72
2022/06/02 13:52:49;;;;;;;6.80;1.95;;;33.60;48.60;;;;;;4954206;28;20042;-73
2022/06/02 13:58:46;;;;;;;12.73;2.65;;;33.70;49.50;;;;;;4970758;28;20045;-73
2022/06/02 14:01:33;;;;;;;12.55;2.58;;;33.70;50.30;;;;;;4970381;28;20086;-73
2022/06/02 14:04:04;;;;;;;13.43;2.38;;;33.40;51.90;;;;;;4970293;28;20159;-73
2022/06/02 14:06:40;;;;;;;10.40;2.83;;;33.40;52.00;;;;;;4974788;28;20089;-73
2022/06/02 14:09:27;;;;;;;10.13;2.40;;;33.50;52.50;;;;;;4974662;28;20031;-72
2022/06/02 14:12:18;;;;;;;8.02;2.45;;;33.50;52.90;;;;;;4994176;28;20042;-73
2022/06/02 14:15:08;;;;;;;9.77;2.20;;;33.50;53.10;;;;;;4994183;28;20030;-73
2022/06/02 14:18:07;;;;;;;14.88;2.70;;;33.60;53.40;;;;;;4994342;28;20057;-73
2022/06/02 14:20:48;;;;;;;11.15;2.40;;;33.60;53.30;;;;;;4994744;28;20538;-72
2022/06/02 14:23:27;;;;;;;8.88;2.40;;;33.70;52.70;;;;;;5033486;28;20033;-73
2022/06/02 14:26:09;;;;;;;9.73;2.28;;;33.60;53.10;;;;;;5076219;28;20457;-73
2022/06/02 14:28:48;;;;;;;15.95;2.95;;;33.50;53.60;;;;;;5076045;28;20179;-72
2022/06/02 14:31:55;;;;;;;11.30;2.47;;;33.30;54.60;;;;;;5075988;28;20104;-73
2022/06/02 14:34:37;;;;;;;13.13;2.78;;;33.40;54.20;;;;;;5033626;28;20032;-73
2022/06/02 14:37:30;;;;;;;12.32;2.70;;;33.40;54.10;;;;;;5033955;28;20045;-73